sensor_id;sensor_type;location;lat;lon;timestamp;temperature;humidity
3053;DHT22;1536;51.098;6.414;2023-12-22T00:01:17;6.40;99.90
3053;DHT22;1536;51.098;6.414;2023-12-22T00:03:44;6.40;99.90
3053;DHT22;1536;51.098;6.414;2023-12-22T00:06:11;6.40;99.90
3053;DHT22;1536;51.098;6.414;2023-12-22T00:08:39;6.40;99.90
3053;DHT22;1536;51.098;6.414;2023-12-22T00:11:06;6.40;99.90
3053;DHT22;1536;51.098;6.414;2023-12-22T00:13:33;6.40;99.90
3053;DHT22;1536;51.098;6.414;2023-12-22T00:16:00;6.40;99.90
3053;DHT22;1536;51.098;6.414;2023-12-22T00:18:27;6.50;99.90
3053;DHT22;1536;51.098;6.414;2023-12-22T00:20:54;6.50;99.90
3053;DHT22;1536;51.098;6.414;2023-12-22T00:23:20;6.60;99.90
3053;DHT22;1536;51.098;6.414;2023-12-22T00:25:48;6.60;99.90
3053;DHT22;1536;51.098;6.414;2023-12-22T00:28:17;6.60;99.90
3053;DHT22;1536;51.098;6.414;2023-12-22T00:30:43;6.70;99.90
3053;DHT22;1536;51.098;6.414;2023-12-22T00:33:10;6.70;99.90
3053;DHT22;1536;51.098;6.414;2023-12-22T00:35:37;6.80;99.90
3053;DHT22;1536;51.098;6.414;2023-12-22T00:38:04;6.80;99.90
3053;DHT22;1536;51.098;6.414;2023-12-22T00:40:31;6.80;99.90
3053;DHT22;1536;51.098;6.414;2023-12-22T00:42:59;6.80;99.90
3053;DHT22;1536;51.098;6.414;2023-12-22T00:45:25;6.80;99.90
3053;DHT22;1536;51.098;6.414;2023-12-22T00:47:52;6.90;99.90
3053;DHT22;1536;51.098;6.414;2023-12-22T00:50:19;6.90;99.90
3053;DHT22;1536;51.098;6.414;2023-12-22T00:52:46;6.90;99.90
3053;DHT22;1536;51.098;6.414;2023-12-22T00:55:12;7.00;99.90
3053;DHT22;1536;51.098;6.414;2023-12-22T00:57:39;7.00;99.90
3053;DHT22;1536;51.098;6.414;2023-12-22T01:00:09;7.00;99.90
3053;DHT22;1536;51.098;6.414;2023-12-22T01:02:38;7.10;99.90
3053;DHT22;1536;51.098;6.414;2023-12-22T01:05:05;7.10;99.90
3053;DHT22;1536;51.098;6.414;2023-12-22T01:07:32;7.20;99.90
3053;DHT22;1536;51.098;6.414;2023-12-22T01:09:59;7.20;99.90
3053;DHT22;1536;51.098;6.414;2023-12-22T01:12:26;7.20;99.90
3053;DHT22;1536;51.098;6.414;2023-12-22T01:14:53;7.20;99.90
3053;DHT22;1536;51.098;6.414;2023-12-22T01:17:21;7.30;99.90
3053;DHT22;1536;51.098;6.414;2023-12-22T01:19:48;7.30;99.90
3053;DHT22;1536;51.098;6.414;2023-12-22T01:22:16;7.30;99.90
3053;DHT22;1536;51.098;6.414;2023-12-22T01:24:43;7.30;99.90
3053;DHT22;1536;51.098;6.414;2023-12-22T01:27:11;7.30;99.90
3053;DHT22;1536;51.098;6.414;2023-12-22T01:29:37;7.40;99.90
3053;DHT22;1536;51.098;6.414;2023-12-22T01:32:05;7.40;99.90
3053;DHT22;1536;51.098;6.414;2023-12-22T01:34:33;7.40;99.90
3053;DHT22;1536;51.098;6.414;2023-12-22T01:37:00;7.40;99.90
3053;DHT22;1536;51.098;6.414;2023-12-22T01:39:27;7.40;99.90
3053;DHT22;1536;51.098;6.414;2023-12-22T01:41:53;7.40;99.90
3053;DHT22;1536;51.098;6.414;2023-12-22T01:44:20;7.40;99.90
3053;DHT22;1536;51.098;6.414;2023-12-22T01:46:47;7.30;99.90
3053;DHT22;1536;51.098;6.414;2023-12-22T01:49:14;7.30;99.90
3053;DHT22;1536;51.098;6.414;2023-12-22T01:51:43;7.30;99.90
3053;DHT22;1536;51.098;6.414;2023-12-22T01:54:10;7.30;99.90
3053;DHT22;1536;51.098;6.414;2023-12-22T01:56:38;7.30;99.90
3053;DHT22;1536;51.098;6.414;2023-12-22T01:59:06;7.30;99.90
3053;DHT22;1536;51.098;6.414;2023-12-22T02:01:33;7.20;99.90
3053;DHT22;1536;51.098;6.414;2023-12-22T02:04:01;7.20;99.90
3053;DHT22;1536;51.098;6.414;2023-12-22T02:06:30;7.20;99.90
3053;DHT22;1536;51.098;6.414;2023-12-22T02:08:58;7.30;99.90
3053;DHT22;1536;51.098;6.414;2023-12-22T02:11:25;7.20;99.90
3053;DHT22;1536;51.098;6.414;2023-12-22T02:13:52;7.20;99.90
3053;DHT22;1536;51.098;6.414;2023-12-22T02:16:22;7.20;99.90
3053;DHT22;1536;51.098;6.414;2023-12-22T02:18:55;7.20;99.90
3053;DHT22;1536;51.098;6.414;2023-12-22T02:21:22;7.20;99.90
3053;DHT22;1536;51.098;6.414;2023-12-22T02:23:50;7.20;99.90
3053;DHT22;1536;51.098;6.414;2023-12-22T02:26:25;7.20;99.90
3053;DHT22;1536;51.098;6.414;2023-12-22T02:28:56;7.20;99.90
3053;DHT22;1536;51.098;6.414;2023-12-22T02:31:33;7.20;99.90
3053;DHT22;1536;51.098;6.414;2023-12-22T02:34:03;7.20;99.90
3053;DHT22;1536;51.098;6.414;2023-12-22T02:36:32;7.20;99.90
3053;DHT22;1536;51.098;6.414;2023-12-22T02:39:02;7.20;99.90
3053;DHT22;1536;51.098;6.414;2023-12-22T02:41:30;7.20;99.90
3053;DHT22;1536;51.098;6.414;2023-12-22T02:43:57;7.20;99.90
3053;DHT22;1536;51.098;6.414;2023-12-22T02:46:24;7.20;99.90
3053;DHT22;1536;51.098;6.414;2023-12-22T02:48:51;7.20;99.90
3053;DHT22;1536;51.098;6.414;2023-12-22T02:51:18;7.20;99.90
3053;DHT22;1536;51.098;6.414;2023-12-22T02:53:45;7.20;99.90
3053;DHT22;1536;51.098;6.414;2023-12-22T02:56:13;7.20;99.90
3053;DHT22;1536;51.098;6.414;2023-12-22T02:58:40;7.30;99.90
3053;DHT22;1536;51.098;6.414;2023-12-22T03:01:07;7.20;99.90
3053;DHT22;1536;51.098;6.414;2023-12-22T03:03:33;7.30;99.90
3053;DHT22;1536;51.098;6.414;2023-12-22T03:06:00;7.30;99.90
3053;DHT22;1536;51.098;6.414;2023-12-22T03:08:27;7.40;99.90
3053;DHT22;1536;51.098;6.414;2023-12-22T03:10:54;7.40;99.90
3053;DHT22;1536;51.098;6.414;2023-12-22T03:13:22;7.40;99.90
3053;DHT22;1536;51.098;6.414;2023-12-22T03:15:48;7.50;99.90
3053;DHT22;1536;51.098;6.414;2023-12-22T03:18:15;7.50;99.90
3053;DHT22;1536;51.098;6.414;2023-12-22T03:20:42;7.50;99.90
3053;DHT22;1536;51.098;6.414;2023-12-22T03:23:09;7.60;99.90
3053;DHT22;1536;51.098;6.414;2023-12-22T03:25:36;7.60;99.90
3053;DHT22;1536;51.098;6.414;2023-12-22T03:28:03;7.60;99.90
3053;DHT22;1536;51.098;6.414;2023-12-22T03:30:31;7.60;99.90
3053;DHT22;1536;51.098;6.414;2023-12-22T03:32:58;7.60;99.90
3053;DHT22;1536;51.098;6.414;2023-12-22T03:35:24;7.60;99.90
3053;DHT22;1536;51.098;6.414;2023-12-22T03:37:51;7.50;99.90
3053;DHT22;1536;51.098;6.414;2023-12-22T03:40:18;7.50;99.90
3053;DHT22;1536;51.098;6.414;2023-12-22T03:42:45;7.50;99.90
3053;DHT22;1536;51.098;6.414;2023-12-22T03:45:12;7.50;99.90
3053;DHT22;1536;51.098;6.414;2023-12-22T03:47:40;7.40;99.90
3053;DHT22;1536;51.098;6.414;2023-12-22T03:50:07;7.40;99.90
3053;DHT22;1536;51.098;6.414;2023-12-22T03:52:34;7.40;99.90
3053;DHT22;1536;51.098;6.414;2023-12-22T03:55:01;7.40;99.90
3053;DHT22;1536;51.098;6.414;2023-12-22T03:57:28;7.40;99.90
3053;DHT22;1536;51.098;6.414;2023-12-22T03:59:55;7.40;99.90
3053;DHT22;1536;51.098;6.414;2023-12-22T04:02:22;7.40;99.90
3053;DHT22;1536;51.098;6.414;2023-12-22T04:04:50;7.40;99.90
3053;DHT22;1536;51.098;6.414;2023-12-22T04:07:17;7.40;99.90
3053;DHT22;1536;51.098;6.414;2023-12-22T04:09:43;7.40;99.90
3053;DHT22;1536;51.098;6.414;2023-12-22T04:12:10;7.40;99.90
3053;DHT22;1536;51.098;6.414;2023-12-22T04:14:37;7.40;99.90
3053;DHT22;1536;51.098;6.414;2023-12-22T04:17:04;7.40;99.90
3053;DHT22;1536;51.098;6.414;2023-12-22T04:19:30;7.40;99.90
3053;DHT22;1536;51.098;6.414;2023-12-22T04:21:58;7.40;99.90
3053;DHT22;1536;51.098;6.414;2023-12-22T04:24:25;7.40;99.90
3053;DHT22;1536;51.098;6.414;2023-12-22T04:26:52;7.40;99.90
3053;DHT22;1536;51.098;6.414;2023-12-22T04:29:19;7.40;99.90
3053;DHT22;1536;51.098;6.414;2023-12-22T04:31:45;7.40;99.90
3053;DHT22;1536;51.098;6.414;2023-12-22T04:34:13;7.40;99.90
3053;DHT22;1536;51.098;6.414;2023-12-22T04:36:41;7.40;99.90
3053;DHT22;1536;51.098;6.414;2023-12-22T04:39:09;7.40;99.90
3053;DHT22;1536;51.098;6.414;2023-12-22T04:41:36;7.40;99.90
3053;DHT22;1536;51.098;6.414;2023-12-22T04:44:02;7.50;99.90
3053;DHT22;1536;51.098;6.414;2023-12-22T04:46:29;7.50;99.90
3053;DHT22;1536;51.098;6.414;2023-12-22T04:48:56;7.50;99.90
3053;DHT22;1536;51.098;6.414;2023-12-22T04:51:23;7.60;99.90
3053;DHT22;1536;51.098;6.414;2023-12-22T04:53:50;7.60;99.90
3053;DHT22;1536;51.098;6.414;2023-12-22T04:56:18;7.70;99.90
3053;DHT22;1536;51.098;6.414;2023-12-22T04:58:45;7.70;99.90
3053;DHT22;1536;51.098;6.414;2023-12-22T05:01:12;7.80;99.90
3053;DHT22;1536;51.098;6.414;2023-12-22T05:03:43;7.80;99.90
3053;DHT22;1536;51.098;6.414;2023-12-22T05:06:09;7.80;99.90
3053;DHT22;1536;51.098;6.414;2023-12-22T05:08:36;7.80;99.90
3053;DHT22;1536;51.098;6.414;2023-12-22T05:11:03;7.90;99.90
3053;DHT22;1536;51.098;6.414;2023-12-22T05:13:31;7.90;99.90
3053;DHT22;1536;51.098;6.414;2023-12-22T05:15:58;7.90;99.90
3053;DHT22;1536;51.098;6.414;2023-12-22T05:18:26;8.00;99.90
3053;DHT22;1536;51.098;6.414;2023-12-22T05:20:52;8.00;99.90
3053;DHT22;1536;51.098;6.414;2023-12-22T05:23:19;8.00;99.90
3053;DHT22;1536;51.098;6.414;2023-12-22T05:25:46;8.10;99.90
3053;DHT22;1536;51.098;6.414;2023-12-22T05:28:13;8.10;99.90
3053;DHT22;1536;51.098;6.414;2023-12-22T05:30:41;8.10;99.90
3053;DHT22;1536;51.098;6.414;2023-12-22T05:33:08;8.10;99.90
3053;DHT22;1536;51.098;6.414;2023-12-22T05:35:35;8.10;99.90
3053;DHT22;1536;51.098;6.414;2023-12-22T05:38:02;8.10;99.90
3053;DHT22;1536;51.098;6.414;2023-12-22T05:40:28;8.10;99.90
3053;DHT22;1536;51.098;6.414;2023-12-22T05:42:55;8.10;99.90
3053;DHT22;1536;51.098;6.414;2023-12-22T05:45:22;8.20;99.90
3053;DHT22;1536;51.098;6.414;2023-12-22T05:47:51;8.20;99.90
3053;DHT22;1536;51.098;6.414;2023-12-22T05:50:18;8.20;99.90
3053;DHT22;1536;51.098;6.414;2023-12-22T05:52:44;8.20;99.90
3053;DHT22;1536;51.098;6.414;2023-12-22T05:55:11;8.20;99.90
3053;DHT22;1536;51.098;6.414;2023-12-22T05:57:38;8.30;99.90
3053;DHT22;1536;51.098;6.414;2023-12-22T06:00:06;8.30;99.90
3053;DHT22;1536;51.098;6.414;2023-12-22T06:02:35;8.30;99.90
3053;DHT22;1536;51.098;6.414;2023-12-22T06:05:04;8.30;99.90
3053;DHT22;1536;51.098;6.414;2023-12-22T06:07:31;8.30;99.90
3053;DHT22;1536;51.098;6.414;2023-12-22T06:09:58;8.30;99.90
3053;DHT22;1536;51.098;6.414;2023-12-22T06:12:25;8.30;99.90
3053;DHT22;1536;51.098;6.414;2023-12-22T06:14:51;8.40;99.90
3053;DHT22;1536;51.098;6.414;2023-12-22T06:17:18;8.40;99.90
3053;DHT22;1536;51.098;6.414;2023-12-22T06:19:45;8.40;99.90
3053;DHT22;1536;51.098;6.414;2023-12-22T06:22:13;8.40;99.90
3053;DHT22;1536;51.098;6.414;2023-12-22T06:24:40;8.40;99.90
3053;DHT22;1536;51.098;6.414;2023-12-22T06:27:07;8.40;99.90
3053;DHT22;1536;51.098;6.414;2023-12-22T06:29:33;8.30;99.90
3053;DHT22;1536;51.098;6.414;2023-12-22T06:32:00;8.20;99.90
3053;DHT22;1536;51.098;6.414;2023-12-22T06:34:27;8.20;99.90
3053;DHT22;1536;51.098;6.414;2023-12-22T06:36:54;8.30;99.90
3053;DHT22;1536;51.098;6.414;2023-12-22T06:39:22;8.20;99.90
3053;DHT22;1536;51.098;6.414;2023-12-22T06:41:48;8.20;99.90
3053;DHT22;1536;51.098;6.414;2023-12-22T06:44:15;8.20;99.90
3053;DHT22;1536;51.098;6.414;2023-12-22T06:46:42;8.20;99.90
3053;DHT22;1536;51.098;6.414;2023-12-22T06:49:09;8.10;99.90
3053;DHT22;1536;51.098;6.414;2023-12-22T06:51:35;8.10;99.90
3053;DHT22;1536;51.098;6.414;2023-12-22T06:54:03;8.10;99.90
3053;DHT22;1536;51.098;6.414;2023-12-22T06:56:33;8.10;99.90
3053;DHT22;1536;51.098;6.414;2023-12-22T06:59:00;8.10;99.90
3053;DHT22;1536;51.098;6.414;2023-12-22T07:01:29;8.10;99.90
3053;DHT22;1536;51.098;6.414;2023-12-22T07:03:57;8.10;99.90
3053;DHT22;1536;51.098;6.414;2023-12-22T07:06:25;8.20;99.90
3053;DHT22;1536;51.098;6.414;2023-12-22T07:08:57;8.20;99.90
3053;DHT22;1536;51.098;6.414;2023-12-22T07:11:24;8.30;99.90
3053;DHT22;1536;51.098;6.414;2023-12-22T07:13:52;8.30;99.90
3053;DHT22;1536;51.098;6.414;2023-12-22T07:16:18;8.40;99.90
3053;DHT22;1536;51.098;6.414;2023-12-22T07:18:45;8.40;99.90
3053;DHT22;1536;51.098;6.414;2023-12-22T07:21:16;8.40;99.90
3053;DHT22;1536;51.098;6.414;2023-12-22T07:23:43;8.50;99.90
3053;DHT22;1536;51.098;6.414;2023-12-22T07:26:10;8.50;99.90
3053;DHT22;1536;51.098;6.414;2023-12-22T07:28:37;8.50;99.90
3053;DHT22;1536;51.098;6.414;2023-12-22T07:31:06;8.60;99.90
3053;DHT22;1536;51.098;6.414;2023-12-22T07:33:32;8.50;99.90
3053;DHT22;1536;51.098;6.414;2023-12-22T07:35:59;8.60;99.90
3053;DHT22;1536;51.098;6.414;2023-12-22T07:38:27;8.60;99.90
3053;DHT22;1536;51.098;6.414;2023-12-22T07:40:54;8.60;99.90
3053;DHT22;1536;51.098;6.414;2023-12-22T07:43:21;8.60;99.90
3053;DHT22;1536;51.098;6.414;2023-12-22T07:45:48;8.60;99.90
3053;DHT22;1536;51.098;6.414;2023-12-22T07:48:17;8.60;99.90
3053;DHT22;1536;51.098;6.414;2023-12-22T07:50:44;8.70;99.90
3053;DHT22;1536;51.098;6.414;2023-12-22T07:53:11;8.70;99.90
3053;DHT22;1536;51.098;6.414;2023-12-22T07:55:38;8.70;99.90
3053;DHT22;1536;51.098;6.414;2023-12-22T07:58:05;8.70;99.90
3053;DHT22;1536;51.098;6.414;2023-12-22T08:00:33;8.70;99.90
3053;DHT22;1536;51.098;6.414;2023-12-22T08:02:59;8.80;99.90
3053;DHT22;1536;51.098;6.414;2023-12-22T08:05:28;8.80;99.90
3053;DHT22;1536;51.098;6.414;2023-12-22T08:07:55;8.80;99.90
3053;DHT22;1536;51.098;6.414;2023-12-22T08:10:26;8.80;99.90
3053;DHT22;1536;51.098;6.414;2023-12-22T08:12:53;8.80;99.90
3053;DHT22;1536;51.098;6.414;2023-12-22T08:15:20;8.90;99.90
3053;DHT22;1536;51.098;6.414;2023-12-22T08:17:46;8.90;99.90
3053;DHT22;1536;51.098;6.414;2023-12-22T08:20:16;8.90;99.90
3053;DHT22;1536;51.098;6.414;2023-12-22T08:22:45;8.90;99.90
3053;DHT22;1536;51.098;6.414;2023-12-22T08:25:12;8.90;99.90
3053;DHT22;1536;51.098;6.414;2023-12-22T08:27:39;9.00;99.90
3053;DHT22;1536;51.098;6.414;2023-12-22T08:30:07;9.00;99.90
3053;DHT22;1536;51.098;6.414;2023-12-22T08:32:34;9.00;99.90
3053;DHT22;1536;51.098;6.414;2023-12-22T08:35:01;9.00;99.90
3053;DHT22;1536;51.098;6.414;2023-12-22T08:37:28;9.00;99.90
3053;DHT22;1536;51.098;6.414;2023-12-22T08:39:56;9.00;99.90
3053;DHT22;1536;51.098;6.414;2023-12-22T08:42:24;9.10;99.90
3053;DHT22;1536;51.098;6.414;2023-12-22T08:44:50;9.10;99.90
3053;DHT22;1536;51.098;6.414;2023-12-22T08:47:17;9.20;99.90
3053;DHT22;1536;51.098;6.414;2023-12-22T08:49:44;9.20;99.90
3053;DHT22;1536;51.098;6.414;2023-12-22T08:52:11;9.20;99.90
3053;DHT22;1536;51.098;6.414;2023-12-22T08:54:39;9.20;99.90
3053;DHT22;1536;51.098;6.414;2023-12-22T08:57:07;9.20;99.90
3053;DHT22;1536;51.098;6.414;2023-12-22T08:59:34;9.20;99.90
3053;DHT22;1536;51.098;6.414;2023-12-22T09:02:01;9.20;99.90
3053;DHT22;1536;51.098;6.414;2023-12-22T09:04:28;9.30;99.90
3053;DHT22;1536;51.098;6.414;2023-12-22T09:06:54;9.30;99.90
3053;DHT22;1536;51.098;6.414;2023-12-22T09:09:21;9.30;99.90
3053;DHT22;1536;51.098;6.414;2023-12-22T09:11:49;9.30;99.90
3053;DHT22;1536;51.098;6.414;2023-12-22T09:14:18;9.30;99.90
3053;DHT22;1536;51.098;6.414;2023-12-22T09:16:44;9.40;99.90
3053;DHT22;1536;51.098;6.414;2023-12-22T09:19:11;9.40;99.90
3053;DHT22;1536;51.098;6.414;2023-12-22T09:21:38;9.40;99.90
3053;DHT22;1536;51.098;6.414;2023-12-22T09:24:05;9.40;99.90
3053;DHT22;1536;51.098;6.414;2023-12-22T09:26:32;9.40;99.90
3053;DHT22;1536;51.098;6.414;2023-12-22T09:28:59;9.50;99.90
3053;DHT22;1536;51.098;6.414;2023-12-22T09:31:27;9.50;99.90
3053;DHT22;1536;51.098;6.414;2023-12-22T09:33:53;9.50;99.90
3053;DHT22;1536;51.098;6.414;2023-12-22T09:36:20;9.50;99.90
3053;DHT22;1536;51.098;6.414;2023-12-22T09:38:47;9.50;99.90
3053;DHT22;1536;51.098;6.414;2023-12-22T09:41:14;9.60;99.90
3053;DHT22;1536;51.098;6.414;2023-12-22T09:43:42;9.60;99.90
3053;DHT22;1536;51.098;6.414;2023-12-22T09:46:13;9.60;99.90
3053;DHT22;1536;51.098;6.414;2023-12-22T09:48:42;9.60;99.90
3053;DHT22;1536;51.098;6.414;2023-12-22T09:51:11;9.70;99.90
3053;DHT22;1536;51.098;6.414;2023-12-22T09:53:38;9.70;99.90
3053;DHT22;1536;51.098;6.414;2023-12-22T09:56:07;9.70;99.90
3053;DHT22;1536;51.098;6.414;2023-12-22T09:58:35;9.70;99.90
3053;DHT22;1536;51.098;6.414;2023-12-22T10:01:04;9.70;99.90
3053;DHT22;1536;51.098;6.414;2023-12-22T10:03:33;9.70;99.90
3053;DHT22;1536;51.098;6.414;2023-12-22T10:06:01;9.70;99.90
3053;DHT22;1536;51.098;6.414;2023-12-22T10:08:28;9.70;99.90
3053;DHT22;1536;51.098;6.414;2023-12-22T10:10:56;9.70;99.90
3053;DHT22;1536;51.098;6.414;2023-12-22T10:13:23;9.70;99.90
3053;DHT22;1536;51.098;6.414;2023-12-22T10:15:53;9.80;99.90
3053;DHT22;1536;51.098;6.414;2023-12-22T10:18:21;9.80;99.90
3053;DHT22;1536;51.098;6.414;2023-12-22T10:20:48;9.80;99.90
3053;DHT22;1536;51.098;6.414;2023-12-22T10:23:16;9.80;99.90
3053;DHT22;1536;51.098;6.414;2023-12-22T10:25:43;9.80;99.90
3053;DHT22;1536;51.098;6.414;2023-12-22T10:28:11;9.90;99.90
3053;DHT22;1536;51.098;6.414;2023-12-22T10:30:40;9.90;99.90
3053;DHT22;1536;51.098;6.414;2023-12-22T10:33:07;9.90;99.90
3053;DHT22;1536;51.098;6.414;2023-12-22T10:35:33;9.90;99.90
3053;DHT22;1536;51.098;6.414;2023-12-22T10:38:00;9.90;99.90
3053;DHT22;1536;51.098;6.414;2023-12-22T10:40:29;9.90;99.90
3053;DHT22;1536;51.098;6.414;2023-12-22T10:42:56;9.90;99.90
3053;DHT22;1536;51.098;6.414;2023-12-22T10:45:23;9.90;99.90
3053;DHT22;1536;51.098;6.414;2023-12-22T10:47:50;9.90;99.90
3053;DHT22;1536;51.098;6.414;2023-12-22T10:50:19;9.90;99.90
3053;DHT22;1536;51.098;6.414;2023-12-22T10:52:49;10.00;99.90
3053;DHT22;1536;51.098;6.414;2023-12-22T10:55:16;10.00;99.90
3053;DHT22;1536;51.098;6.414;2023-12-22T10:57:45;10.00;99.90
3053;DHT22;1536;51.098;6.414;2023-12-22T11:00:14;10.00;99.90
3053;DHT22;1536;51.098;6.414;2023-12-22T11:02:42;10.10;99.90
3053;DHT22;1536;51.098;6.414;2023-12-22T11:05:11;10.10;99.90
3053;DHT22;1536;51.098;6.414;2023-12-22T11:07:41;10.10;99.90
3053;DHT22;1536;51.098;6.414;2023-12-22T11:10:12;10.10;99.90
3053;DHT22;1536;51.098;6.414;2023-12-22T11:12:40;10.10;99.90
3053;DHT22;1536;51.098;6.414;2023-12-22T11:15:11;10.20;99.90
3053;DHT22;1536;51.098;6.414;2023-12-22T11:17:39;10.20;99.90
3053;DHT22;1536;51.098;6.414;2023-12-22T11:20:10;10.20;99.90
3053;DHT22;1536;51.098;6.414;2023-12-22T11:22:37;10.20;99.90
3053;DHT22;1536;51.098;6.414;2023-12-22T11:25:07;10.20;99.90
3053;DHT22;1536;51.098;6.414;2023-12-22T11:27:36;10.20;99.90
3053;DHT22;1536;51.098;6.414;2023-12-22T11:30:04;10.20;99.90
3053;DHT22;1536;51.098;6.414;2023-12-22T11:32:35;10.20;99.90
3053;DHT22;1536;51.098;6.414;2023-12-22T11:35:02;10.20;99.90
3053;DHT22;1536;51.098;6.414;2023-12-22T11:37:31;10.20;99.90
3053;DHT22;1536;51.098;6.414;2023-12-22T11:39:58;10.30;99.90
3053;DHT22;1536;51.098;6.414;2023-12-22T11:42:28;10.30;99.90
3053;DHT22;1536;51.098;6.414;2023-12-22T11:44:57;10.30;99.90
3053;DHT22;1536;51.098;6.414;2023-12-22T11:47:24;10.30;99.90
3053;DHT22;1536;51.098;6.414;2023-12-22T11:49:53;10.40;99.90
3053;DHT22;1536;51.098;6.414;2023-12-22T11:52:26;10.40;99.90
3053;DHT22;1536;51.098;6.414;2023-12-22T11:54:54;10.40;99.90
3053;DHT22;1536;51.098;6.414;2023-12-22T11:57:35;10.40;99.90
3053;DHT22;1536;51.098;6.414;2023-12-22T12:00:05;10.40;99.90
3053;DHT22;1536;51.098;6.414;2023-12-22T12:02:33;10.40;99.90
3053;DHT22;1536;51.098;6.414;2023-12-22T12:05:03;10.50;99.90
3053;DHT22;1536;51.098;6.414;2023-12-22T12:07:38;10.50;99.90
3053;DHT22;1536;51.098;6.414;2023-12-22T12:10:07;10.50;99.90
3053;DHT22;1536;51.098;6.414;2023-12-22T12:12:34;10.50;99.90
3053;DHT22;1536;51.098;6.414;2023-12-22T12:15:07;10.50;99.90
3053;DHT22;1536;51.098;6.414;2023-12-22T12:17:38;10.50;99.90
3053;DHT22;1536;51.098;6.414;2023-12-22T12:20:08;10.60;99.90
3053;DHT22;1536;51.098;6.414;2023-12-22T12:22:36;10.60;99.90
3053;DHT22;1536;51.098;6.414;2023-12-22T12:25:07;10.60;99.90
3053;DHT22;1536;51.098;6.414;2023-12-22T12:27:34;10.70;99.90
3053;DHT22;1536;51.098;6.414;2023-12-22T12:30:10;10.70;99.90
3053;DHT22;1536;51.098;6.414;2023-12-22T12:32:38;10.70;99.90
3053;DHT22;1536;51.098;6.414;2023-12-22T12:35:06;10.70;99.90
3053;DHT22;1536;51.098;6.414;2023-12-22T12:37:33;10.80;99.90
3053;DHT22;1536;51.098;6.414;2023-12-22T12:40:01;10.80;99.90
3053;DHT22;1536;51.098;6.414;2023-12-22T12:42:31;10.80;99.90
3053;DHT22;1536;51.098;6.414;2023-12-22T12:44:57;10.80;99.90
3053;DHT22;1536;51.098;6.414;2023-12-22T12:47:24;10.80;99.90
3053;DHT22;1536;51.098;6.414;2023-12-22T12:49:57;10.80;99.90
3053;DHT22;1536;51.098;6.414;2023-12-22T12:52:26;10.80;99.90
3053;DHT22;1536;51.098;6.414;2023-12-22T12:54:53;10.80;99.90
3053;DHT22;1536;51.098;6.414;2023-12-22T12:57:20;10.80;99.90
3053;DHT22;1536;51.098;6.414;2023-12-22T12:59:47;10.80;99.90
3053;DHT22;1536;51.098;6.414;2023-12-22T13:02:15;10.90;99.90
3053;DHT22;1536;51.098;6.414;2023-12-22T13:04:42;10.90;99.90
3053;DHT22;1536;51.098;6.414;2023-12-22T13:07:09;10.90;99.90
3053;DHT22;1536;51.098;6.414;2023-12-22T13:09:40;10.90;99.90
3053;DHT22;1536;51.098;6.414;2023-12-22T13:12:08;10.90;99.90
3053;DHT22;1536;51.098;6.414;2023-12-22T13:14:36;10.90;99.90
3053;DHT22;1536;51.098;6.414;2023-12-22T13:17:03;11.00;99.90
3053;DHT22;1536;51.098;6.414;2023-12-22T13:19:30;11.00;99.90
3053;DHT22;1536;51.098;6.414;2023-12-22T13:21:57;10.90;99.90
3053;DHT22;1536;51.098;6.414;2023-12-22T13:24:23;10.90;99.90
3053;DHT22;1536;51.098;6.414;2023-12-22T13:27:00;11.00;99.90
3053;DHT22;1536;51.098;6.414;2023-12-22T13:29:29;11.00;99.90
3053;DHT22;1536;51.098;6.414;2023-12-22T13:31:56;10.90;99.90
3053;DHT22;1536;51.098;6.414;2023-12-22T13:34:23;10.90;99.90
3053;DHT22;1536;51.098;6.414;2023-12-22T13:36:50;10.90;99.90
3053;DHT22;1536;51.098;6.414;2023-12-22T13:39:18;11.00;99.90
3053;DHT22;1536;51.098;6.414;2023-12-22T13:41:44;10.90;99.90
3053;DHT22;1536;51.098;6.414;2023-12-22T13:44:13;11.00;99.90
3053;DHT22;1536;51.098;6.414;2023-12-22T13:46:40;10.90;99.90
3053;DHT22;1536;51.098;6.414;2023-12-22T13:49:08;10.90;99.90
3053;DHT22;1536;51.098;6.414;2023-12-22T13:51:39;10.90;99.90
3053;DHT22;1536;51.098;6.414;2023-12-22T13:54:06;10.90;99.90
3053;DHT22;1536;51.098;6.414;2023-12-22T13:56:33;10.90;99.90
3053;DHT22;1536;51.098;6.414;2023-12-22T13:59:02;10.90;99.90
3053;DHT22;1536;51.098;6.414;2023-12-22T14:01:30;10.90;99.90
3053;DHT22;1536;51.098;6.414;2023-12-22T14:03:58;10.90;99.90
3053;DHT22;1536;51.098;6.414;2023-12-22T14:06:25;10.90;99.90
3053;DHT22;1536;51.098;6.414;2023-12-22T14:08:52;10.90;99.90
3053;DHT22;1536;51.098;6.414;2023-12-22T14:11:19;10.90;99.90
3053;DHT22;1536;51.098;6.414;2023-12-22T14:13:46;10.90;99.90
3053;DHT22;1536;51.098;6.414;2023-12-22T14:16:13;10.90;99.90
3053;DHT22;1536;51.098;6.414;2023-12-22T14:18:42;10.90;99.90
3053;DHT22;1536;51.098;6.414;2023-12-22T14:21:08;10.90;99.90
3053;DHT22;1536;51.098;6.414;2023-12-22T14:23:35;10.90;99.90
3053;DHT22;1536;51.098;6.414;2023-12-22T14:26:02;10.90;99.90
3053;DHT22;1536;51.098;6.414;2023-12-22T14:28:31;10.80;99.90
3053;DHT22;1536;51.098;6.414;2023-12-22T14:30:57;10.90;99.90
3053;DHT22;1536;51.098;6.414;2023-12-22T14:33:24;10.90;99.90
3053;DHT22;1536;51.098;6.414;2023-12-22T14:35:52;10.80;99.90
3053;DHT22;1536;51.098;6.414;2023-12-22T14:38:19;10.80;99.90
3053;DHT22;1536;51.098;6.414;2023-12-22T14:40:46;10.80;99.90
3053;DHT22;1536;51.098;6.414;2023-12-22T14:43:13;10.70;99.90
3053;DHT22;1536;51.098;6.414;2023-12-22T14:45:40;10.70;99.90
3053;DHT22;1536;51.098;6.414;2023-12-22T14:48:07;10.70;99.90
3053;DHT22;1536;51.098;6.414;2023-12-22T14:50:32;10.70;99.90
3053;DHT22;1536;51.098;6.414;2023-12-22T14:53:00;10.70;99.90
3053;DHT22;1536;51.098;6.414;2023-12-22T14:55:28;10.60;99.90
3053;DHT22;1536;51.098;6.414;2023-12-22T14:57:54;10.60;99.90
3053;DHT22;1536;51.098;6.414;2023-12-22T15:00:21;10.60;99.90
3053;DHT22;1536;51.098;6.414;2023-12-22T15:02:48;10.60;99.90
3053;DHT22;1536;51.098;6.414;2023-12-22T15:05:15;10.60;99.90
3053;DHT22;1536;51.098;6.414;2023-12-22T15:07:43;10.60;99.90
3053;DHT22;1536;51.098;6.414;2023-12-22T15:10:11;10.60;99.90
3053;DHT22;1536;51.098;6.414;2023-12-22T15:12:38;10.60;99.90
3053;DHT22;1536;51.098;6.414;2023-12-22T15:15:08;10.60;99.90
3053;DHT22;1536;51.098;6.414;2023-12-22T15:17:35;10.60;99.90
3053;DHT22;1536;51.098;6.414;2023-12-22T15:20:02;10.60;99.90
3053;DHT22;1536;51.098;6.414;2023-12-22T15:22:30;10.60;99.90
3053;DHT22;1536;51.098;6.414;2023-12-22T15:24:57;10.60;99.90
3053;DHT22;1536;51.098;6.414;2023-12-22T15:27:25;10.60;99.90
3053;DHT22;1536;51.098;6.414;2023-12-22T15:29:52;10.50;99.90
3053;DHT22;1536;51.098;6.414;2023-12-22T15:32:19;10.50;99.90
3053;DHT22;1536;51.098;6.414;2023-12-22T15:34:46;10.50;99.90
3053;DHT22;1536;51.098;6.414;2023-12-22T15:37:13;10.50;99.90
3053;DHT22;1536;51.098;6.414;2023-12-22T15:39:40;10.50;99.90
3053;DHT22;1536;51.098;6.414;2023-12-22T15:42:07;10.50;99.90
3053;DHT22;1536;51.098;6.414;2023-12-22T15:44:40;10.50;99.90
3053;DHT22;1536;51.098;6.414;2023-12-22T15:47:06;10.50;99.90
3053;DHT22;1536;51.098;6.414;2023-12-22T15:49:37;10.50;99.90
3053;DHT22;1536;51.098;6.414;2023-12-22T15:52:04;10.50;99.90
3053;DHT22;1536;51.098;6.414;2023-12-22T15:54:31;10.50;99.90
3053;DHT22;1536;51.098;6.414;2023-12-22T15:56:58;10.50;99.90
3053;DHT22;1536;51.098;6.414;2023-12-22T15:59:25;10.50;99.90
3053;DHT22;1536;51.098;6.414;2023-12-22T16:01:53;10.50;99.90
3053;DHT22;1536;51.098;6.414;2023-12-22T16:04:19;10.50;99.90
3053;DHT22;1536;51.098;6.414;2023-12-22T16:06:46;10.50;99.90
3053;DHT22;1536;51.098;6.414;2023-12-22T16:09:13;10.50;99.90
3053;DHT22;1536;51.098;6.414;2023-12-22T16:11:40;10.50;99.90
3053;DHT22;1536;51.098;6.414;2023-12-22T16:14:06;10.50;99.90